Time;durP1;ratioP1;P1;durP2;ratioP2;P2;SDS_P1;SDS_P2;PMS_P1;PMS_P2;Temp;Humidity;BMP_temperature;BMP_pressure;BME280_temperature;BME280_humidity;BME280_pressure;Samples;Min_cycle;Max_cycle;Signal;HPM_P1;HPM_P2
2022/10/24 00:01:10;;;;;;;7.75;2.70;;;18.70;64.20;;;;;;5036133;28;20398;-52
2022/10/24 00:03:38;;;;;;;13.63;2.63;;;18.70;64.20;;;;;;5041582;28;20055;-50
2022/10/24 00:06:06;;;;;;;5.10;2.42;;;18.70;64.10;;;;;;5043717;28;20053;-52
2022/10/24 00:08:34;;;;;;;12.45;2.80;;;18.70;64.10;;;;;;5028493;28;20057;-48
2022/10/24 00:11:01;;;;;;;7.40;2.40;;;18.70;64.10;;;;;;5040045;28;20049;-51
2022/10/24 00:13:29;;;;;;;12.15;3.13;;;18.60;64.10;;;;;;5035578;28;20057;-50
2022/10/24 00:15:56;;;;;;;7.65;2.53;;;18.70;64.10;;;;;;5037447;28;20500;-49
2022/10/24 00:18:25;;;;;;;7.38;2.70;;;18.70;64.10;;;;;;5040822;28;20079;-50
2022/10/24 00:20:52;;;;;;;16.35;2.85;;;18.60;64.00;;;;;;5041641;28;20128;-52
2022/10/24 00:23:19;;;;;;;8.13;2.70;;;18.70;64.10;;;;;;5043693;28;20496;-51
2022/10/24 00:25:46;;;;;;;7.07;2.70;;;18.60;63.90;;;;;;5043384;28;20057;-51
2022/10/24 00:28:13;;;;;;;8.32;3.00;;;18.60;63.90;;;;;;5039783;28;20060;-49
2022/10/24 00:30:41;;;;;;;10.50;2.40;;;18.60;64.00;;;;;;5037641;28;20064;-49
2022/10/24 00:33:08;;;;;;;13.93;2.72;;;18.60;64.10;;;;;;5043191;28;20497;-51
2022/10/24 00:35:36;;;;;;;9.75;3.05;;;18.60;64.10;;;;;;5046924;28;20080;-50
2022/10/24 00:38:04;;;;;;;11.07;2.72;;;18.60;64.10;;;;;;5045311;28;20056;-52
2022/10/24 00:40:31;;;;;;;10.20;2.85;;;18.60;64.20;;;;;;5033371;28;20404;-51
2022/10/24 00:42:58;;;;;;;13.77;3.30;;;18.60;64.30;;;;;;5046058;28;20053;-48
2022/10/24 00:45:42;;;;;;;11.10;3.20;;;18.60;64.30;;;;;;5042812;28;20050;-51
2022/10/24 00:48:18;;;;;;;7.18;3.13;;;18.60;64.40;;;;;;5045917;28;20063;-50
2022/10/24 00:50:49;;;;;;;11.27;2.53;;;18.60;64.30;;;;;;5042859;28;20063;-51
2022/10/24 00:53:17;;;;;;;9.27;2.70;;;18.60;64.30;;;;;;5042491;28;20059;-51
2022/10/24 00:55:48;;;;;;;7.80;2.95;;;18.60;64.30;;;;;;5043959;28;20044;-52
2022/10/24 00:58:16;;;;;;;12.85;2.78;;;18.60;64.30;;;;;;5045218;28;20061;-49
2022/10/24 01:00:44;;;;;;;11.00;2.80;;;18.60;64.30;;;;;;5039324;28;20488;-50
2022/10/24 01:03:12;;;;;;;8.65;2.90;;;18.60;64.30;;;;;;5042242;28;20053;-45
2022/10/24 01:05:53;;;;;;;5.88;3.00;;;18.60;64.30;;;;;;5042759;28;20059;-47
2022/10/24 01:08:29;;;;;;;17.27;3.75;;;18.60;64.30;;;;;;5042021;28;20060;-51
2022/10/24 01:11:09;;;;;;;9.13;3.30;;;18.60;64.20;;;;;;5039408;28;20060;-44
2022/10/24 01:13:47;;;;;;;11.77;3.17;;;18.60;64.20;;;;;;5034390;28;20049;-50
2022/10/24 01:16:19;;;;;;;15.57;2.95;;;18.60;64.20;;;;;;5041948;28;20061;-45
2022/10/24 01:18:52;;;;;;;11.88;2.70;;;18.60;64.10;;;;;;5044519;28;20072;-48
2022/10/24 01:21:30;;;;;;;14.52;3.55;;;18.60;64.20;;;;;;5038423;28;20055;-46
2022/10/24 01:24:23;;;;;;;12.77;3.38;;;18.60;64.10;;;;;;5034010;28;20064;-48
2022/10/24 01:27:26;;;;;;;13.90;3.25;;;18.60;64.10;;;;;;5036121;28;20400;-48
2022/10/24 01:30:02;;;;;;;21.17;2.97;;;18.60;64.10;;;;;;5028851;28;20497;-44
2022/10/24 01:32:48;;;;;;;20.70;3.53;;;18.60;64.00;;;;;;5042477;28;20068;-46
2022/10/24 01:35:34;;;;;;;10.65;3.75;;;18.60;64.00;;;;;;5042894;28;20505;-49
2022/10/24 01:38:08;;;;;;;8.23;3.13;;;18.50;63.90;;;;;;5029187;28;20072;-48
2022/10/24 01:40:39;;;;;;;9.80;3.33;;;18.50;63.90;;;;;;5039804;28;20050;-43
2022/10/24 01:43:11;;;;;;;5.82;2.80;;;18.50;63.90;;;;;;5044409;28;20076;-46
2022/10/24 01:45:44;;;;;;;8.98;2.97;;;18.50;63.80;;;;;;5040389;28;20044;-48
2022/10/24 01:48:15;;;;;;;12.32;3.15;;;18.50;63.80;;;;;;5037174;28;20050;-47
2022/10/24 01:50:47;;;;;;;13.30;3.75;;;18.50;63.80;;;;;;5036985;28;20056;-47
2022/10/24 01:53:15;;;;;;;9.73;3.03;;;18.50;63.70;;;;;;5030393;28;20535;-50
2022/10/24 01:55:44;;;;;;;12.82;3.35;;;18.50;63.70;;;;;;5035662;28;20477;-47
2022/10/24 01:58:11;;;;;;;11.27;3.20;;;18.50;63.70;;;;;;5041566;28;20413;-49
2022/10/24 02:00:42;;;;;;;10.05;2.65;;;18.50;63.70;;;;;;5033442;28;20386;-51
2022/10/24 02:03:19;;;;;;;10.75;2.95;;;18.50;63.80;;;;;;5035525;28;20497;-46
2022/10/24 02:05:50;;;;;;;10.65;3.00;;;18.50;63.80;;;;;;5042892;28;20509;-46
2022/10/24 02:08:21;;;;;;;11.57;3.22;;;18.50;63.80;;;;;;5040869;28;20068;-49
2022/10/24 02:10:53;;;;;;;10.70;3.53;;;18.50;63.80;;;;;;5038165;28;20504;-49
2022/10/24 02:13:27;;;;;;;8.63;3.05;;;18.50;63.70;;;;;;5041740;28;20060;-46
2022/10/24 02:15:59;;;;;;;8.55;3.30;;;18.50;63.70;;;;;;5041274;28;20048;-46
2022/10/24 02:18:28;;;;;;;12.10;3.08;;;18.50;63.70;;;;;;5043835;28;20060;-48
2022/10/24 02:21:02;;;;;;;9.07;3.45;;;18.50;63.70;;;;;;5036632;28;20060;-44
2022/10/24 02:23:37;;;;;;;15.57;3.20;;;18.50;63.70;;;;;;5041764;28;20061;-47
2022/10/24 02:26:11;;;;;;;7.97;2.78;;;18.50;63.70;;;;;;5033505;28;20377;-43
2022/10/24 02:28:43;;;;;;;16.00;3.53;;;18.50;63.70;;;;;;5038640;28;20045;-47
2022/10/24 02:31:16;;;;;;;11.05;3.78;;;18.50;63.70;;;;;;5037740;28;20064;-49
2022/10/24 02:33:45;;;;;;;10.40;3.63;;;18.50;63.70;;;;;;5041464;28;20060;-48
2022/10/24 02:36:16;;;;;;;14.65;3.38;;;18.50;63.70;;;;;;5042049;28;20501;-47
2022/10/24 02:38:46;;;;;;;12.25;3.67;;;18.50;63.70;;;;;;5040608;28;20061;-47
2022/10/24 02:41:18;;;;;;;10.20;3.35;;;18.50;63.70;;;;;;5036443;28;20057;-47
2022/10/24 02:43:46;;;;;;;17.55;4.25;;;18.50;63.70;;;;;;5037160;28;20400;-50
2022/10/24 02:46:16;;;;;;;10.80;3.75;;;18.50;63.80;;;;;;5034741;28;20497;-49
2022/10/24 02:48:47;;;;;;;9.32;3.38;;;18.50;63.80;;;;;;5036370;28;20061;-45
2022/10/24 02:51:18;;;;;;;12.40;3.60;;;18.50;63.70;;;;;;5037659;28;20056;-48
2022/10/24 02:53:46;;;;;;;14.63;3.72;;;18.50;63.80;;;;;;5031453;28;20058;-51
2022/10/24 02:56:13;;;;;;;10.68;3.38;;;18.50;63.70;;;;;;5036505;28;20060;-50
2022/10/24 02:58:40;;;;;;;15.65;3.53;;;18.50;63.70;;;;;;5039335;28;20045;-51
2022/10/24 03:01:08;;;;;;;13.98;3.53;;;18.50;63.70;;;;;;5033599;28;20084;-52
2022/10/24 03:03:36;;;;;;;19.42;5.05;;;18.50;63.60;;;;;;5036761;28;20495;-52
2022/10/24 03:06:04;;;;;;;18.65;3.75;;;18.50;63.60;;;;;;5033666;28;20045;-52
2022/10/24 03:08:31;;;;;;;8.70;2.83;;;18.50;63.50;;;;;;5035687;28;20053;-49
2022/10/24 03:10:58;;;;;;;23.83;4.55;;;18.50;63.50;;;;;;5035430;28;20408;-51
2022/10/24 03:13:26;;;;;;;11.60;3.08;;;18.50;63.40;;;;;;5039766;28;20061;-52
2022/10/24 03:15:53;;;;;;;12.40;3.40;;;18.50;63.30;;;;;;5041027;28;20511;-48
2022/10/24 03:18:20;;;;;;;8.52;2.75;;;18.50;63.20;;;;;;5042045;28;20060;-51
2022/10/24 03:20:49;;;;;;;11.15;3.10;;;18.50;63.10;;;;;;5037695;28;20404;-49
2022/10/24 03:23:18;;;;;;;9.23;3.00;;;18.50;63.00;;;;;;5040917;28;20056;-47
2022/10/24 03:25:45;;;;;;;8.48;2.47;;;18.50;62.90;;;;;;5034574;28;20049;-49
2022/10/24 03:28:12;;;;;;;10.65;3.42;;;18.50;62.80;;;;;;5029084;28;20068;-48
2022/10/24 03:30:39;;;;;;;10.27;3.20;;;18.50;62.70;;;;;;5023380;28;20056;-52
2022/10/24 03:33:07;;;;;;;10.60;2.95;;;18.50;62.60;;;;;;5021604;28;20057;-50
2022/10/24 03:35:35;;;;;;;7.30;2.65;;;18.50;62.50;;;;;;5042152;28;20048;-50
2022/10/24 03:38:07;;;;;;;14.80;2.70;;;18.50;62.40;;;;;;5023301;28;20061;-51
2022/10/24 03:40:34;;;;;;;11.50;2.67;;;18.50;62.30;;;;;;5025783;28;20068;-52
2022/10/24 03:43:01;;;;;;;10.32;2.63;;;18.50;62.10;;;;;;5041594;28;20057;-50
2022/10/24 03:45:28;;;;;;;16.85;2.92;;;18.50;61.90;;;;;;5034184;28;20497;-51
2022/10/24 03:47:56;;;;;;;11.90;3.08;;;18.50;61.80;;;;;;5039213;28;20054;-50
2022/10/24 03:50:23;;;;;;;16.92;3.30;;;18.50;61.70;;;;;;5027441;28;20068;-52
2022/10/24 03:52:50;;;;;;;10.73;2.55;;;18.50;61.50;;;;;;5037129;28;20057;-50
2022/10/24 03:55:19;;;;;;;13.63;3.45;;;18.50;61.40;;;;;;5041684;28;20416;-51
2022/10/24 03:57:46;;;;;;;9.65;2.60;;;18.50;61.20;;;;;;5043165;28;20049;-51
2022/10/24 04:00:14;;;;;;;11.73;2.58;;;18.50;61.00;;;;;;5044687;28;20060;-51
2022/10/24 04:02:41;;;;;;;9.20;2.53;;;18.50;60.90;;;;;;5042359;28;20595;-52
2022/10/24 04:05:09;;;;;;;20.08;6.57;;;18.50;60.80;;;;;;5045334;28;20063;-52
2022/10/24 04:07:36;;;;;;;15.48;7.72;;;18.50;60.60;;;;;;5042283;28;20056;-49
2022/10/24 04:10:04;;;;;;;9.95;3.83;;;18.40;60.60;;;;;;5039890;28;20068;-53
2022/10/24 04:12:33;;;;;;;15.65;2.60;;;18.50;60.60;;;;;;5022790;28;20068;-49
2022/10/24 04:15:01;;;;;;;8.80;2.30;;;18.50;60.40;;;;;;5046853;28;20067;-51
2022/10/24 04:17:28;;;;;;;6.60;2.42;;;18.40;60.50;;;;;;5027569;28;20648;-46
2022/10/24 04:19:55;;;;;;;8.82;2.50;;;18.50;60.50;;;;;;5046101;28;20053;-49
2022/10/24 04:22:23;;;;;;;8.30;2.63;;;18.40;60.30;;;;;;5043547;28;20493;-51
2022/10/24 04:24:50;;;;;;;11.50;2.65;;;18.40;60.20;;;;;;5037207;28;20056;-51
2022/10/24 04:27:18;;;;;;;11.60;2.53;;;18.40;60.10;;;;;;5043115;28;20511;-52
2022/10/24 04:29:47;;;;;;;8.88;2.70;;;18.40;59.90;;;;;;5044932;28;20048;-51
2022/10/24 04:32:14;;;;;;;15.00;5.20;;;18.40;59.90;;;;;;5040080;28;20064;-48
2022/10/24 04:34:41;;;;;;;24.73;10.48;;;18.40;59.90;;;;;;5041393;28;20409;-48
2022/10/24 04:37:08;;;;;;;12.27;3.78;;;18.40;59.90;;;;;;5044147;28;20048;-48
2022/10/24 04:39:35;;;;;;;9.07;2.42;;;18.40;59.80;;;;;;5042691;28;20072;-49
2022/10/24 04:42:03;;;;;;;10.55;3.17;;;18.40;59.70;;;;;;5044138;28;20053;-50
2022/10/24 04:44:30;;;;;;;9.20;2.10;;;18.40;59.70;;;;;;5042352;28;20420;-51
2022/10/24 04:46:58;;;;;;;5.30;1.85;;;18.40;59.70;;;;;;5043015;28;20078;-51
2022/10/24 04:49:26;;;;;;;5.57;2.40;;;18.40;59.70;;;;;;5042137;28;20061;-51
2022/10/24 04:51:53;;;;;;;7.85;2.30;;;18.40;60.20;;;;;;5041360;28;20045;-54
2022/10/24 04:54:20;;;;;;;13.73;4.00;;;18.40;59.60;;;;;;5041349;28;20049;-52
2022/10/24 04:56:47;;;;;;;15.27;2.60;;;18.40;59.40;;;;;;5037870;28;20103;-51
2022/10/24 04:59:15;;;;;;;11.13;4.32;;;18.40;59.40;;;;;;5034122;28;20056;-51
2022/10/24 05:01:42;;;;;;;25.38;8.50;;;18.40;59.40;;;;;;5028192;28;21073;-53
2022/10/24 05:04:11;;;;;;;15.98;5.05;;;18.40;59.50;;;;;;5039536;28;20472;-47
2022/10/24 05:06:38;;;;;;;10.80;2.78;;;18.40;59.60;;;;;;5025818;28;20050;-46
2022/10/24 05:09:06;;;;;;;12.25;2.75;;;18.40;59.50;;;;;;5031879;28;20060;-52
2022/10/24 05:11:33;;;;;;;7.53;2.17;;;18.40;59.50;;;;;;5041886;28;20064;-50
2022/10/24 05:14:00;;;;;;;9.98;2.70;;;18.30;59.40;;;;;;5044181;28;20057;-51
2022/10/24 05:16:27;;;;;;;7.57;2.10;;;18.40;59.40;;;;;;5043734;28;20052;-49
2022/10/24 05:18:55;;;;;;;11.93;2.50;;;18.40;59.40;;;;;;5043684;28;20053;-50
2022/10/24 05:21:24;;;;;;;6.72;2.00;;;18.30;59.40;;;;;;5041224;28;20061;-52
2022/10/24 05:23:51;;;;;;;14.60;2.60;;;18.40;59.40;;;;;;5036804;28;20053;-50
2022/10/24 05:26:19;;;;;;;8.65;2.42;;;18.40;59.40;;;;;;5044919;28;20056;-52
2022/10/24 05:28:46;;;;;;;8.25;2.33;;;18.30;59.30;;;;;;5038161;28;20511;-50
2022/10/24 05:31:13;;;;;;;9.50;2.53;;;18.30;59.40;;;;;;5033842;28;20063;-50
2022/10/24 05:33:40;;;;;;;6.15;2.30;;;18.30;59.40;;;;;;5041601;28;20060;-51
2022/10/24 05:36:09;;;;;;;9.32;2.67;;;18.30;59.40;;;;;;5044268;28;20508;-52
2022/10/24 05:38:37;;;;;;;9.57;2.20;;;18.30;59.40;;;;;;5042258;28;20056;-47
2022/10/24 05:41:05;;;;;;;10.20;2.80;;;18.30;59.30;;;;;;5038525;28;20053;-51
2022/10/24 05:43:32;;;;;;;7.95;1.95;;;18.30;59.40;;;;;;5044133;28;20303;-51
2022/10/24 05:45:59;;;;;;;7.07;2.10;;;18.30;59.40;;;;;;5044086;28;20485;-50
2022/10/24 05:48:26;;;;;;;13.73;3.28;;;18.30;59.40;;;;;;5040958;28;20048;-50
2022/10/24 05:50:57;;;;;;;8.13;2.38;;;18.30;59.40;;;;;;5042564;28;20060;-50
2022/10/24 05:53:24;;;;;;;5.90;2.40;;;18.30;59.30;;;;;;5042385;28;20064;-50
2022/10/24 05:55:53;;;;;;;9.30;2.40;;;18.30;59.40;;;;;;5043819;28;20056;-52
2022/10/24 05:58:21;;;;;;;12.95;2.90;;;18.30;59.30;;;;;;5041482;28;20485;-51
2022/10/24 06:00:48;;;;;;;11.02;2.55;;;18.30;59.30;;;;;;5041730;28;20052;-50
2022/10/24 06:03:16;;;;;;;12.32;2.55;;;18.30;59.30;;;;;;5028204;28;20064;-51
2022/10/24 06:05:43;;;;;;;7.65;2.05;;;18.30;59.20;;;;;;5043535;28;20428;-51
2022/10/24 06:08:10;;;;;;;6.80;2.53;;;18.30;59.20;;;;;;5039641;28;20489;-51
2022/10/24 06:10:37;;;;;;;13.57;2.40;;;18.30;59.30;;;;;;5032289;28;20800;-52
2022/10/24 06:13:06;;;;;;;8.43;2.00;;;18.30;59.30;;;;;;5031647;28;20057;-50
2022/10/24 06:15:33;;;;;;;7.45;2.30;;;18.30;59.30;;;;;;5039899;28;20053;-50
2022/10/24 06:18:01;;;;;;;13.00;2.42;;;18.30;59.20;;;;;;5026499;28;20064;-51
2022/10/24 06:20:28;;;;;;;10.75;2.58;;;18.30;59.20;;;;;;5035878;28;20050;-52
2022/10/24 06:22:55;;;;;;;7.47;2.00;;;18.30;59.10;;;;;;5040426;28;20056;-51
2022/10/24 06:25:22;;;;;;;13.85;2.50;;;18.30;59.10;;;;;;5039950;28;20516;-52
2022/10/24 06:27:49;;;;;;;7.85;2.45;;;18.30;59.00;;;;;;5044056;28;20053;-50
2022/10/24 06:30:18;;;;;;;10.13;2.10;;;18.30;59.00;;;;;;5034891;28;20072;-52
2022/10/24 06:32:45;;;;;;;6.50;1.73;;;18.30;59.10;;;;;;5043749;28;20053;-50
2022/10/24 06:35:14;;;;;;;4.25;1.75;;;18.30;59.00;;;;;;5044200;28;20053;-47
2022/10/24 06:37:42;;;;;;;8.98;2.30;;;18.30;59.00;;;;;;5043327;28;20064;-51
2022/10/24 06:40:11;;;;;;;8.63;2.17;;;18.30;58.90;;;;;;5034973;28;20512;-49
2022/10/24 06:42:38;;;;;;;10.20;2.63;;;18.30;58.90;;;;;;5041022;28;20060;-53
2022/10/24 06:45:06;;;;;;;6.97;2.03;;;18.30;58.90;;;;;;5037989;28;20045;-52
2022/10/24 06:47:34;;;;;;;7.93;2.10;;;18.30;58.80;;;;;;5042972;28;20057;-52
2022/10/24 06:50:02;;;;;;;6.70;2.00;;;18.30;58.80;;;;;;5035503;28;20385;-49
2022/10/24 06:52:29;;;;;;;8.63;1.92;;;18.30;58.80;;;;;;5038374;28;20053;-50
2022/10/24 06:54:56;;;;;;;8.95;2.30;;;18.30;58.70;;;;;;5042796;28;20057;-50
2022/10/24 06:57:23;;;;;;;6.45;1.90;;;18.30;58.70;;;;;;5043767;28;20052;-51
2022/10/24 06:59:51;;;;;;;4.43;1.70;;;18.40;58.70;;;;;;5040455;28;20067;-52
2022/10/24 07:02:19;;;;;;;5.13;1.75;;;18.40;58.70;;;;;;5035425;28;20051;-52
2022/10/24 07:04:47;;;;;;;6.93;2.42;;;18.40;58.70;;;;;;5035769;28;21392;-51
2022/10/24 07:07:16;;;;;;;13.15;2.90;;;18.40;58.70;;;;;;5034205;28;20500;-51
2022/10/24 07:09:43;;;;;;;15.02;1.98;;;18.40;58.60;;;;;;5038369;28;20057;-52
2022/10/24 07:12:10;;;;;;;5.72;1.52;;;18.40;58.70;;;;;;5032027;28;20056;-51
2022/10/24 07:14:37;;;;;;;6.10;1.60;;;18.40;58.80;;;;;;5043389;28;20053;-54
2022/10/24 07:17:05;;;;;;;6.47;1.38;;;18.40;58.70;;;;;;5031317;28;20521;-52
2022/10/24 07:19:32;;;;;;;10.00;1.75;;;18.40;58.60;;;;;;5039135;28;20068;-52
2022/10/24 07:22:01;;;;;;;11.25;2.55;;;18.50;58.60;;;;;;5037612;28;20057;-53
2022/10/24 07:24:28;;;;;;;8.00;1.90;;;18.50;58.40;;;;;;5042359;28;20060;-52
2022/10/24 07:26:55;;;;;;;5.00;1.40;;;18.50;58.40;;;;;;5041127;28;20064;-52
2022/10/24 07:29:23;;;;;;;6.13;1.50;;;18.50;58.40;;;;;;5039909;28;20493;-52
2022/10/24 07:31:50;;;;;;;7.90;1.70;;;18.50;58.40;;;;;;5046790;28;20044;-52
2022/10/24 07:34:17;;;;;;;8.60;1.70;;;18.50;58.40;;;;;;5046043;28;20059;-52
2022/10/24 07:36:45;;;;;;;4.55;1.50;;;18.50;58.40;;;;;;5046795;28;20061;-51
2022/10/24 07:39:14;;;;;;;7.22;1.65;;;18.50;58.50;;;;;;5040832;28;20485;-51
2022/10/24 07:41:41;;;;;;;12.02;2.58;;;18.50;58.60;;;;;;5041419;28;20053;-50
2022/10/24 07:44:10;;;;;;;5.43;1.85;;;18.60;58.60;;;;;;5032986;28;20488;-52
2022/10/24 07:46:37;;;;;;;7.05;1.67;;;18.60;58.60;;;;;;5047840;28;20067;-50
2022/10/24 07:49:04;;;;;;;9.18;1.95;;;18.70;58.60;;;;;;5035366;28;20060;-53
2022/10/24 07:51:31;;;;;;;7.50;1.75;;;18.60;58.40;;;;;;5044763;28;20055;-53
2022/10/24 07:53:59;;;;;;;4.82;1.33;;;18.60;58.40;;;;;;5042713;28;20069;-52
2022/10/24 07:56:27;;;;;;;9.15;1.40;;;18.70;58.50;;;;;;5048536;28;20052;-53
2022/10/24 07:58:56;;;;;;;6.32;1.80;;;18.70;58.40;;;;;;5030714;28;20053;-52
2022/10/24 08:01:25;;;;;;;9.57;2.20;;;18.70;58.30;;;;;;5041106;28;20061;-50
2022/10/24 08:03:53;;;;;;;9.32;2.58;;;18.80;58.30;;;;;;5043496;28;20053;-53
2022/10/24 08:06:23;;;;;;;6.97;1.90;;;18.80;58.20;;;;;;5035102;28;20068;-52
2022/10/24 08:08:50;;;;;;;7.25;1.77;;;18.80;58.00;;;;;;5042064;28;20053;-53
2022/10/24 08:11:21;;;;;;;7.97;1.80;;;18.80;57.70;;;;;;5047454;28;20049;-52
2022/10/24 08:13:50;;;;;;;5.65;1.45;;;18.80;57.50;;;;;;5047801;28;20057;-51
2022/10/24 08:16:20;;;;;;;7.22;1.60;;;18.80;57.60;;;;;;5050427;28;20488;-55
2022/10/24 08:18:49;;;;;;;5.38;1.70;;;18.80;57.60;;;;;;5048441;28;20057;-53
2022/10/24 08:21:18;;;;;;;8.93;1.42;;;18.90;57.50;;;;;;5048442;28;20052;-53
2022/10/24 08:23:47;;;;;;;4.18;1.02;;;18.90;57.20;;;;;;5048448;28;20053;-54
2022/10/24 08:26:16;;;;;;;6.05;1.35;;;18.90;57.10;;;;;;5047191;28;20053;-54
2022/10/24 08:28:45;;;;;;;5.18;1.45;;;18.90;57.10;;;;;;5045909;28;20049;-53
2022/10/24 08:31:15;;;;;;;8.90;1.20;;;18.90;56.80;;;;;;5051090;28;20064;-53
2022/10/24 08:33:42;;;;;;;4.90;1.10;;;18.90;56.70;;;;;;5041791;28;20061;-52
2022/10/24 08:36:16;;;;;;;12.05;2.13;;;19.00;56.80;;;;;;5050396;28;20063;-55
2022/10/24 08:38:43;;;;;;;9.13;1.77;;;19.00;56.70;;;;;;5046096;28;20053;-52
2022/10/24 08:41:16;;;;;;;7.40;1.50;;;19.10;56.90;;;;;;5048421;28;20124;-52
2022/10/24 08:43:43;;;;;;;9.43;1.50;;;19.10;56.70;;;;;;5041600;28;20068;-54
2022/10/24 08:46:27;;;;;;;3.85;1.13;;;19.10;57.20;;;;;;5049496;28;20059;-54
2022/10/24 08:49:01;;;;;;;8.17;1.37;;;19.10;56.30;;;;;;5053301;28;20053;-54
2022/10/24 08:51:36;;;;;;;13.23;1.73;;;19.20;56.50;;;;;;5047108;28;20059;-54
2022/10/24 08:54:04;;;;;;;5.50;1.50;;;19.20;56.20;;;;;;5037149;28;20049;-54
2022/10/24 08:56:33;;;;;;;4.88;1.52;;;19.30;56.40;;;;;;5044904;28;20048;-51
2022/10/24 08:59:02;;;;;;;8.32;1.33;;;19.30;56.20;;;;;;5037835;28;20056;-54
2022/10/24 09:01:35;;;;;;;5.90;1.10;;;19.30;55.90;;;;;;5041641;28;20057;-50
2022/10/24 09:04:09;;;;;;;3.85;0.77;;;19.30;55.80;;;;;;5046210;28;20104;-49
2022/10/24 09:06:37;;;;;;;4.70;1.48;;;19.40;55.80;;;;;;5042689;28;20053;-53
2022/10/24 09:09:10;;;;;;;6.22;1.30;;;19.40;55.70;;;;;;5034751;28;20390;-54
2022/10/24 09:11:45;;;;;;;6.77;1.40;;;19.40;55.80;;;;;;5034016;28;20420;-53
2022/10/24 09:14:13;;;;;;;9.07;1.20;;;19.40;55.70;;;;;;5029125;28;20053;-53
2022/10/24 09:16:44;;;;;;;6.32;1.20;;;19.40;55.60;;;;;;5033662;28;20049;-48
2022/10/24 09:19:14;;;;;;;4.65;1.20;;;19.40;55.60;;;;;;5039076;28;20060;-53
2022/10/24 09:21:43;;;;;;;7.15;1.38;;;19.40;55.70;;;;;;5040245;28;20387;-51
2022/10/24 09:24:23;;;;;;;8.35;1.17;;;19.40;55.40;;;;;;5028999;28;20053;-49
2022/10/24 09:26:51;;;;;;;5.57;1.08;;;19.50;55.30;;;;;;5024251;28;20064;-54
2022/10/24 09:29:18;;;;;;;3.85;0.70;;;19.50;55.60;;;;;;5023786;28;20049;-51
2022/10/24 09:31:48;;;;;;;4.38;1.35;;;19.50;55.60;;;;;;5025677;28;20520;-53
2022/10/24 09:34:16;;;;;;;7.47;1.13;;;19.50;55.50;;;;;;5035774;28;20060;-53
2022/10/24 09:36:44;;;;;;;8.77;1.30;;;19.60;55.40;;;;;;5035110;28;20050;-53
2022/10/24 09:39:25;;;;;;;8.50;1.70;;;19.60;55.40;;;;;;5037968;28;20044;-53
2022/10/24 09:41:53;;;;;;;9.55;1.35;;;19.60;55.10;;;;;;5033564;28;20045;-53
2022/10/24 09:44:36;;;;;;;7.20;1.48;;;19.70;55.20;;;;;;5008578;28;20066;-52
2022/10/24 09:47:11;;;;;;;4.57;1.50;;;19.70;55.20;;;;;;5023350;28;20434;-53
2022/10/24 09:49:40;;;;;;;;;;;19.80;55.00;;;;;;5029220;28;20053;-49
2022/10/24 09:52:19;;;;;;;5.10;1.08;;;19.80;55.40;;;;;;5028850;28;19924;-55
2022/10/24 09:54:47;;;;;;;7.03;1.27;;;19.90;54.80;;;;;;5015156;28;20082;-56
2022/10/24 09:57:17;;;;;;;6.15;1.20;;;19.90;54.60;;;;;;5013874;28;20497;-52
2022/10/24 09:59:45;;;;;;;5.78;1.40;;;20.00;54.50;;;;;;5018536;28;20569;-52
2022/10/24 10:02:33;;;;;;;7.45;1.48;;;20.00;54.50;;;;;;5018979;28;20078;-55
2022/10/24 10:05:19;;;;;;;5.88;1.20;;;20.00;54.10;;;;;;5026536;28;20064;-58
2022/10/24 10:07:49;;;;;;;5.18;1.30;;;20.00;54.10;;;;;;5019079;28;20063;-57
2022/10/24 10:10:34;;;;;;;3.53;1.20;;;20.00;54.20;;;;;;5011857;28;20588;-53
2022/10/24 10:13:10;;;;;;;5.93;1.65;;;20.10;53.90;;;;;;5022789;28;20067;-55
2022/10/24 10:15:44;;;;;;;8.15;1.27;;;20.10;54.00;;;;;;5014528;28;20059;-57
2022/10/24 10:18:25;;;;;;;9.55;1.63;;;20.10;53.70;;;;;;5022657;28;20524;-59
2022/10/24 10:21:08;;;;;;;8.18;1.42;;;20.20;53.70;;;;;;5011890;28;20053;-49
2022/10/24 10:23:38;;;;;;;9.27;1.48;;;20.20;53.30;;;;;;5013772;28;20052;-56
2022/10/24 10:26:16;;;;;;;8.98;1.50;;;20.20;53.10;;;;;;5012265;28;20693;-58
2022/10/24 10:28:55;;;;;;;6.75;1.50;;;20.20;53.00;;;;;;5024630;28;20056;-54
2022/10/24 10:31:26;;;;;;;6.38;1.15;;;20.20;53.00;;;;;;5005423;28;20528;-52
2022/10/24 10:34:20;;;;;;;12.88;1.80;;;20.20;52.90;;;;;;5008016;28;20058;-57
2022/10/24 10:37:02;;;;;;;7.07;1.60;;;20.20;52.80;;;;;;5017220;28;20119;-53
2022/10/24 10:39:52;;;;;;;8.32;1.38;;;20.20;52.70;;;;;;5014525;28;20057;-58
2022/10/24 10:42:27;;;;;;;9.18;1.58;;;20.30;52.60;;;;;;5015454;28;20053;-58
2022/10/24 10:45:05;;;;;;;14.38;2.33;;;20.30;52.50;;;;;;5023839;28;20067;-53
2022/10/24 10:47:42;;;;;;;7.25;1.20;;;20.30;52.00;;;;;;5015871;28;20061;-58
2022/10/24 10:50:26;;;;;;;8.60;1.60;;;20.30;52.00;;;;;;5008789;28;20053;-58
2022/10/24 10:52:57;;;;;;;5.60;1.25;;;20.40;51.90;;;;;;5008044;28;20057;-58
2022/10/24 10:55:31;;;;;;;10.23;1.80;;;20.40;51.90;;;;;;5015297;28;20057;-57
2022/10/24 10:58:08;;;;;;;7.55;1.17;;;20.40;51.40;;;;;;5015896;28;20063;-50
2022/10/24 11:00:43;;;;;;;8.90;1.40;;;20.40;51.40;;;;;;5031996;28;20068;-51
2022/10/24 11:03:22;;;;;;;12.05;1.88;;;20.40;51.70;;;;;;5038281;28;20061;-50
2022/10/24 11:05:56;;;;;;;8.63;1.48;;;20.40;51.80;;;;;;5038986;28;20053;-50
2022/10/24 11:08:53;;;;;;;6.63;1.20;;;20.40;51.70;;;;;;5028881;28;20056;-52
2022/10/24 11:11:24;;;;;;;7.43;1.55;;;20.40;51.80;;;;;;5015286;28;21345;-56
2022/10/24 11:13:57;;;;;;;6.25;1.25;;;20.40;51.90;;;;;;5016251;28;20742;-53
2022/10/24 11:16:28;;;;;;;7.50;1.33;;;20.50;51.70;;;;;;5020470;28;20057;-49
2022/10/24 11:19:01;;;;;;;9.10;1.88;;;20.50;51.50;;;;;;5020068;28;20065;-56
2022/10/24 11:21:33;;;;;;;5.85;1.65;;;20.50;51.30;;;;;;5010307;28;20433;-51
2022/10/24 11:24:04;;;;;;;5.38;1.13;;;20.60;51.20;;;;;;5012256;28;20421;-47
2022/10/24 11:26:33;;;;;;;9.98;1.50;;;20.60;51.00;;;;;;5014437;28;20056;-54
2022/10/24 11:29:11;;;;;;;7.63;1.60;;;20.60;51.10;;;;;;5019706;28;20065;-47
2022/10/24 11:31:42;;;;;;;6.18;1.50;;;20.60;50.80;;;;;;5018340;28;20078;-50
2022/10/24 11:34:15;;;;;;;6.72;1.63;;;20.70;50.80;;;;;;5004276;28;20051;-45
2022/10/24 11:36:49;;;;;;;6.53;1.67;;;20.70;50.80;;;;;;5014978;28;20057;-51
2022/10/24 11:39:21;;;;;;;13.10;1.88;;;20.70;50.50;;;;;;5024432;28;20061;-50
2022/10/24 11:41:54;;;;;;;3.90;1.20;;;20.70;50.10;;;;;;5020618;28;20057;-54
2022/10/24 11:44:38;;;;;;;6.80;1.17;;;20.70;49.60;;;;;;5012229;28;20054;-45
2022/10/24 11:47:30;;;;;;;6.05;1.38;;;20.70;49.40;;;;;;5009543;28;20187;-47
2022/10/24 11:50:04;;;;;;;11.98;1.48;;;20.70;49.10;;;;;;5018074;28;20053;-53
2022/10/24 11:52:38;;;;;;;7.60;1.38;;;20.70;49.10;;;;;;5012855;28;20053;-43
2022/10/24 11:55:11;;;;;;;10.57;1.70;;;20.70;49.20;;;;;;5021645;28;20060;-52
2022/10/24 11:57:43;;;;;;;7.80;1.23;;;20.70;49.20;;;;;;5010090;28;20064;-44
2022/10/24 12:00:18;;;;;;;5.70;1.00;;;20.70;49.60;;;;;;5013901;28;20514;-48
2022/10/24 12:03:21;;;;;;;3.63;1.20;;;20.70;48.90;;;;;;5018043;28;20049;-46
2022/10/24 12:06:10;;;;;;;4.93;1.27;;;20.70;49.20;;;;;;5018053;28;20057;-46
2022/10/24 12:09:04;;;;;;;8.55;1.75;;;20.70;49.30;;;;;;5010684;28;20058;-44
2022/10/24 12:11:55;;;;;;;6.63;1.80;;;20.70;49.50;;;;;;5010106;28;20061;-44
2022/10/24 12:14:53;;;;;;;8.10;1.83;;;20.80;49.60;;;;;;5014516;28;20487;-43
2022/10/24 12:17:48;;;;;;;6.03;1.45;;;20.80;49.70;;;;;;5021660;28;20053;-45
2022/10/24 12:20:20;;;;;;;4.93;1.33;;;20.80;49.80;;;;;;5042082;28;20056;-45
2022/10/24 12:22:49;;;;;;;7.65;1.17;;;20.80;50.00;;;;;;5039557;28;20053;-53
2022/10/24 12:25:32;;;;;;;8.65;2.13;;;20.90;50.00;;;;;;5033479;28;20066;-48
2022/10/24 12:28:02;;;;;;;6.90;1.23;;;20.90;49.50;;;;;;5029887;28;20053;-48
2022/10/24 12:30:32;;;;;;;6.03;2.00;;;20.90;49.60;;;;;;5040038;28;20053;-44
2022/10/24 12:33:12;;;;;;;8.43;1.45;;;20.90;49.30;;;;;;5035375;28;20049;-47
2022/10/24 12:35:50;;;;;;;9.32;1.40;;;20.90;48.40;;;;;;5041407;28;20056;-48
2022/10/24 12:38:34;;;;;;;6.95;1.50;;;20.90;48.40;;;;;;5042869;28;20045;-48
2022/10/24 12:41:08;;;;;;;4.53;0.98;;;20.90;48.60;;;;;;5013905;28;20064;-48
2022/10/24 12:43:37;;;;;;;7.68;1.13;;;20.90;48.70;;;;;;5044530;28;20059;-46
2022/10/24 12:46:37;;;;;;;9.15;1.33;;;20.90;48.70;;;;;;5036001;28;20053;-48
2022/10/24 12:49:26;;;;;;;4.97;1.20;;;20.80;48.40;;;;;;5022940;28;20049;-45
2022/10/24 12:51:53;;;;;;;3.95;1.05;;;20.90;48.90;;;;;;5040917;28;20044;-45
2022/10/24 12:54:39;;;;;;;5.28;1.20;;;20.80;48.80;;;;;;5043086;28;20053;-49
2022/10/24 12:57:26;;;;;;;7.20;1.33;;;20.80;48.80;;;;;;5036971;28;20061;-46
2022/10/24 12:59:56;;;;;;;10.30;1.50;;;20.90;48.70;;;;;;5043071;28;20052;-49
2022/10/24 13:02:47;;;;;;;6.88;1.30;;;20.90;48.80;;;;;;5037203;28;20061;-44
2022/10/24 13:05:34;;;;;;;7.20;1.42;;;20.80;48.60;;;;;;5036690;28;20056;-46